CheckWX is a tool to help pilots better visualize weather data.  It is not intended as a substitute for an official pre-flight weather briefing.

04:32:32 UTC

I68 METAR
Warren County / John Lane Field Airport
Lebanon, Ohio, USA
Current

18 mins ago

KI68 240415Z AUTO 00000KT 10SM CLR 17/14 A3007 RMK AO1 T01660135
Observed
Jul-24 @ 04:15 UTC
Visibility
10 SM
Flight Rules
VFR
Cloud Levels
  • Clear skies
Temperature
17°C / 63°F
Dewpoint
14°C / 57°F
Humidity
83%
Altimeter
30.07" Hg
Pressure
1018.32 hPa
Previous

38 mins ago

KI68 240355Z AUTO 00000KT 10SM CLR 17/13 A3007 RMK AO1 T01680128
Observed
Jul-24 @ 03:55 UTC
Visibility
10 SM
Flight Rules
VFR
Cloud Levels
  • Clear skies
Temperature
17°C / 63°F
Dewpoint
13°C / 55°F
Humidity
77%
Altimeter
30.07" Hg
Pressure
1018.32 hPa
Previous

58 mins ago

KI68 240335Z AUTO 00000KT 10SM CLR 18/11 A3007 RMK AO1 T01760111
Observed
Jul-24 @ 03:35 UTC
Visibility
10 SM
Flight Rules
VFR
Cloud Levels
  • Clear skies
Temperature
18°C / 64°F
Dewpoint
11°C / 52°F
Humidity
64%
Altimeter
30.07" Hg
Pressure
1018.32 hPa